Nashville, TN (JWN)

Redbird FMX


Given the close proximity to downtown Nashville, Tennessee, John Tune (JWN) is a great place for the general aviation enthusiast or for someone learning how to fly. Wings of Eagles Aviation’s office is located in Hangar 1, and is accessible from the road or the ramp. The FBO is open 24 hours a day 7 days a week so there will always be someone available for help or fuel.

Address:
210 Tune Airport Dr.
Nashville, TN 37209

Phone: (615) 979-9222

Business Hours:
Monday-Sunday 7a-10p

Wings JWN

NOAA Weather

Nashville, TN

Last Updated on Feb 22 2017, 10:53 am CST

Current Conditions: Overcast

NOAA Icon

Temp: 64°F

Wind: SE at 5mph

Humidity: 81%

Dewpoint: 57.9°F

Your 5-Day Forecast at a Glance

Available data for KBNA from the past 2 hours
NASHVILLE, TN
Metar
KBNA 221653Z 13005KT 10SM SCT023 SCT200 OVC250 18/14 A2991 RMK AO2 SLP126 T01780144

16:53 UTC

Wind: 130° 5kt

Visibility: 10 SM

Sky: SCT 2300 ft

Temp: 18 deg C / 64.4 deg F

Dewpoint: 14 deg C / 57.2 deg F

Pressure: 29.91 inHg

TAF
KBNA 221358Z 2214/2312 09006KT 6SM BR OVC025 FM221600 13006KT P6SM OVC030 FM221900 15008KT P6SM OVC050 FM230500 18005KT 5SM BR OVC025 FM231000 17003KT 3SM BR OVC010
Pireps (4)
CHA UA /OV RMG360070/TM 1620/FL240/TP C130/SK OVC-TOPUNKN/SKC/WV 27012KT/TB NEG
EVV UA /OV CCT010005/TM 1619/FL350/TP MD88/TB MOD
BNA UA /OV BNA/TM 1555/FLDURGC/TP B737/SK BKN031-TOP035/BKN140-TOPUNKN/TB SMOOTH
EVV UA /OV CCT/TM 1525/FL410/TP C56X/TB LGT CHOP